sensor_id;sensor_type;location;lat;lon;timestamp;temperature;humidity
8408;DHT22;4241;48.452;9.216;2022-07-29T00:01:48;18.80;99.90
8408;DHT22;4241;48.452;9.216;2022-07-29T00:04:15;18.80;99.90
8408;DHT22;4241;48.452;9.216;2022-07-29T00:06:41;18.90;99.90
8408;DHT22;4241;48.452;9.216;2022-07-29T00:09:08;18.90;99.90
8408;DHT22;4241;48.452;9.216;2022-07-29T00:11:36;18.80;99.90
8408;DHT22;4241;48.452;9.216;2022-07-29T00:14:03;18.90;99.90
8408;DHT22;4241;48.452;9.216;2022-07-29T00:16:30;19.00;99.90
8408;DHT22;4241;48.452;9.216;2022-07-29T00:18:57;19.00;99.90
8408;DHT22;4241;48.452;9.216;2022-07-29T00:21:24;18.90;99.90
8408;DHT22;4241;48.452;9.216;2022-07-29T00:23:51;18.90;99.90
8408;DHT22;4241;48.452;9.216;2022-07-29T00:26:18;18.80;99.90
8408;DHT22;4241;48.452;9.216;2022-07-29T00:28:46;18.80;99.90
8408;DHT22;4241;48.452;9.216;2022-07-29T00:31:13;18.70;99.90
8408;DHT22;4241;48.452;9.216;2022-07-29T00:33:39;18.80;99.90
8408;DHT22;4241;48.452;9.216;2022-07-29T00:36:06;18.80;99.90
8408;DHT22;4241;48.452;9.216;2022-07-29T00:38:32;18.70;99.90
8408;DHT22;4241;48.452;9.216;2022-07-29T00:40:59;18.60;99.90
8408;DHT22;4241;48.452;9.216;2022-07-29T00:43:26;18.70;99.90
8408;DHT22;4241;48.452;9.216;2022-07-29T00:45:54;18.80;99.90
8408;DHT22;4241;48.452;9.216;2022-07-29T00:48:21;18.80;99.90
8408;DHT22;4241;48.452;9.216;2022-07-29T00:50:49;18.80;99.90
8408;DHT22;4241;48.452;9.216;2022-07-29T00:53:16;18.80;99.90
8408;DHT22;4241;48.452;9.216;2022-07-29T00:55:43;18.70;99.90
8408;DHT22;4241;48.452;9.216;2022-07-29T00:58:12;18.60;99.90
8408;DHT22;4241;48.452;9.216;2022-07-29T01:00:39;18.60;99.90
8408;DHT22;4241;48.452;9.216;2022-07-29T01:03:10;18.60;99.90
8408;DHT22;4241;48.452;9.216;2022-07-29T01:05:38;18.70;99.90
8408;DHT22;4241;48.452;9.216;2022-07-29T01:08:06;18.60;99.90
8408;DHT22;4241;48.452;9.216;2022-07-29T01:10:33;18.70;99.90
8408;DHT22;4241;48.452;9.216;2022-07-29T01:13:03;18.70;99.90
8408;DHT22;4241;48.452;9.216;2022-07-29T01:15:30;18.70;99.90
8408;DHT22;4241;48.452;9.216;2022-07-29T01:18:03;18.70;99.90
8408;DHT22;4241;48.452;9.216;2022-07-29T01:20:51;18.60;99.90
8408;DHT22;4241;48.452;9.216;2022-07-29T01:23:48;18.80;99.90
8408;DHT22;4241;48.452;9.216;2022-07-29T01:26:41;18.80;99.90
8408;DHT22;4241;48.452;9.216;2022-07-29T01:29:16;18.80;99.90
8408;DHT22;4241;48.452;9.216;2022-07-29T01:31:48;18.60;99.90
8408;DHT22;4241;48.452;9.216;2022-07-29T01:34:21;18.60;99.90
8408;DHT22;4241;48.452;9.216;2022-07-29T01:36:55;18.60;99.90
8408;DHT22;4241;48.452;9.216;2022-07-29T01:39:27;18.70;99.90
8408;DHT22;4241;48.452;9.216;2022-07-29T01:41:59;18.80;99.90
8408;DHT22;4241;48.452;9.216;2022-07-29T01:44:32;18.80;99.90
8408;DHT22;4241;48.452;9.216;2022-07-29T01:47:05;18.80;99.90
8408;DHT22;4241;48.452;9.216;2022-07-29T01:49:37;18.80;99.90
8408;DHT22;4241;48.452;9.216;2022-07-29T01:52:08;18.90;99.90
8408;DHT22;4241;48.452;9.216;2022-07-29T01:54:39;18.90;99.90
8408;DHT22;4241;48.452;9.216;2022-07-29T01:57:11;18.90;99.90
8408;DHT22;4241;48.452;9.216;2022-07-29T01:59:41;18.80;99.90
8408;DHT22;4241;48.452;9.216;2022-07-29T02:02:11;19.00;99.90
8408;DHT22;4241;48.452;9.216;2022-07-29T02:04:40;18.80;99.90
8408;DHT22;4241;48.452;9.216;2022-07-29T02:07:10;18.60;99.90
8408;DHT22;4241;48.452;9.216;2022-07-29T02:09:41;18.40;99.90
8408;DHT22;4241;48.452;9.216;2022-07-29T02:12:10;18.00;99.90
8408;DHT22;4241;48.452;9.216;2022-07-29T02:14:42;17.80;99.90
8408;DHT22;4241;48.452;9.216;2022-07-29T02:17:11;17.70;99.90
8408;DHT22;4241;48.452;9.216;2022-07-29T02:19:39;17.70;99.90
8408;DHT22;4241;48.452;9.216;2022-07-29T02:22:08;18.10;99.90
8408;DHT22;4241;48.452;9.216;2022-07-29T02:24:37;18.10;99.90
8408;DHT22;4241;48.452;9.216;2022-07-29T02:27:07;17.80;99.90
8408;DHT22;4241;48.452;9.216;2022-07-29T02:29:34;17.70;99.90
8408;DHT22;4241;48.452;9.216;2022-07-29T02:32:04;17.60;99.90
8408;DHT22;4241;48.452;9.216;2022-07-29T02:34:33;17.70;99.90
8408;DHT22;4241;48.452;9.216;2022-07-29T02:37:02;17.60;99.90
8408;DHT22;4241;48.452;9.216;2022-07-29T02:39:30;17.60;99.90
8408;DHT22;4241;48.452;9.216;2022-07-29T02:42:01;17.60;99.90
8408;DHT22;4241;48.452;9.216;2022-07-29T02:44:29;17.70;99.90
8408;DHT22;4241;48.452;9.216;2022-07-29T02:47:04;17.70;99.90
8408;DHT22;4241;48.452;9.216;2022-07-29T02:49:36;17.50;99.90
8408;DHT22;4241;48.452;9.216;2022-07-29T02:52:08;17.50;99.90
8408;DHT22;4241;48.452;9.216;2022-07-29T02:54:39;17.40;99.90
8408;DHT22;4241;48.452;9.216;2022-07-29T02:57:13;17.50;99.90
8408;DHT22;4241;48.452;9.216;2022-07-29T02:59:42;17.50;99.90
8408;DHT22;4241;48.452;9.216;2022-07-29T03:02:12;17.50;99.90
8408;DHT22;4241;48.452;9.216;2022-07-29T03:04:41;17.50;99.90
8408;DHT22;4241;48.452;9.216;2022-07-29T03:07:11;17.50;99.90
8408;DHT22;4241;48.452;9.216;2022-07-29T03:09:40;17.50;99.90
8408;DHT22;4241;48.452;9.216;2022-07-29T03:12:08;17.50;99.90
8408;DHT22;4241;48.452;9.216;2022-07-29T03:14:36;17.40;99.90
8408;DHT22;4241;48.452;9.216;2022-07-29T03:17:03;17.20;99.90
8408;DHT22;4241;48.452;9.216;2022-07-29T03:19:32;17.20;99.90
8408;DHT22;4241;48.452;9.216;2022-07-29T03:21:59;17.10;99.90
8408;DHT22;4241;48.452;9.216;2022-07-29T03:24:29;17.20;99.90
8408;DHT22;4241;48.452;9.216;2022-07-29T03:26:56;17.20;99.90
8408;DHT22;4241;48.452;9.216;2022-07-29T03:29:23;17.20;99.90
8408;DHT22;4241;48.452;9.216;2022-07-29T03:31:50;17.20;99.90
8408;DHT22;4241;48.452;9.216;2022-07-29T03:34:17;17.30;99.90
8408;DHT22;4241;48.452;9.216;2022-07-29T03:36:45;17.10;99.90
8408;DHT22;4241;48.452;9.216;2022-07-29T03:39:15;17.10;99.90
8408;DHT22;4241;48.452;9.216;2022-07-29T03:41:44;17.10;99.90
8408;DHT22;4241;48.452;9.216;2022-07-29T03:44:13;17.30;99.90
8408;DHT22;4241;48.452;9.216;2022-07-29T03:46:42;17.30;99.90
8408;DHT22;4241;48.452;9.216;2022-07-29T03:49:11;17.20;99.90
8408;DHT22;4241;48.452;9.216;2022-07-29T03:51:39;17.20;99.90
8408;DHT22;4241;48.452;9.216;2022-07-29T03:54:07;17.20;99.90
8408;DHT22;4241;48.452;9.216;2022-07-29T03:56:37;17.20;99.90
8408;DHT22;4241;48.452;9.216;2022-07-29T03:59:05;17.10;99.90
8408;DHT22;4241;48.452;9.216;2022-07-29T04:01:33;17.10;99.90
8408;DHT22;4241;48.452;9.216;2022-07-29T04:04:01;17.20;99.90
8408;DHT22;4241;48.452;9.216;2022-07-29T04:06:30;17.10;99.90
8408;DHT22;4241;48.452;9.216;2022-07-29T04:09:03;17.00;99.90
8408;DHT22;4241;48.452;9.216;2022-07-29T04:11:31;17.00;99.90
8408;DHT22;4241;48.452;9.216;2022-07-29T04:13:58;16.90;99.90
8408;DHT22;4241;48.452;9.216;2022-07-29T04:16:25;15.60;99.90
8408;DHT22;4241;48.452;9.216;2022-07-29T04:18:52;16.80;99.90
8408;DHT22;4241;48.452;9.216;2022-07-29T04:21:19;17.00;99.90
8408;DHT22;4241;48.452;9.216;2022-07-29T04:23:46;16.90;99.90
8408;DHT22;4241;48.452;9.216;2022-07-29T04:26:15;17.00;99.90
8408;DHT22;4241;48.452;9.216;2022-07-29T04:28:43;17.10;99.90
8408;DHT22;4241;48.452;9.216;2022-07-29T04:31:11;17.00;99.90
8408;DHT22;4241;48.452;9.216;2022-07-29T04:33:39;16.90;99.90
8408;DHT22;4241;48.452;9.216;2022-07-29T04:36:06;17.00;99.90
8408;DHT22;4241;48.452;9.216;2022-07-29T04:38:33;17.10;99.90
8408;DHT22;4241;48.452;9.216;2022-07-29T04:40:59;17.00;99.90
8408;DHT22;4241;48.452;9.216;2022-07-29T04:43:26;17.10;99.90
8408;DHT22;4241;48.452;9.216;2022-07-29T04:45:54;17.00;99.90
8408;DHT22;4241;48.452;9.216;2022-07-29T04:48:21;17.10;99.90
8408;DHT22;4241;48.452;9.216;2022-07-29T04:50:48;17.10;99.90
8408;DHT22;4241;48.452;9.216;2022-07-29T04:53:15;17.20;99.90
8408;DHT22;4241;48.452;9.216;2022-07-29T04:55:42;17.20;99.90
8408;DHT22;4241;48.452;9.216;2022-07-29T04:58:09;17.20;99.90
8408;DHT22;4241;48.452;9.216;2022-07-29T05:00:36;17.30;99.90
8408;DHT22;4241;48.452;9.216;2022-07-29T05:03:04;17.30;99.90
8408;DHT22;4241;48.452;9.216;2022-07-29T05:05:31;17.10;99.90
8408;DHT22;4241;48.452;9.216;2022-07-29T05:08:01;17.10;99.90
8408;DHT22;4241;48.452;9.216;2022-07-29T05:10:28;17.30;99.90
8408;DHT22;4241;48.452;9.216;2022-07-29T05:12:55;17.40;99.90
8408;DHT22;4241;48.452;9.216;2022-07-29T05:15:22;17.40;99.90
8408;DHT22;4241;48.452;9.216;2022-07-29T05:17:48;17.50;99.90
8408;DHT22;4241;48.452;9.216;2022-07-29T05:20:17;17.70;99.90
8408;DHT22;4241;48.452;9.216;2022-07-29T05:22:44;17.60;99.90
8408;DHT22;4241;48.452;9.216;2022-07-29T05:25:11;17.60;99.90
8408;DHT22;4241;48.452;9.216;2022-07-29T05:27:38;17.60;99.90
8408;DHT22;4241;48.452;9.216;2022-07-29T05:30:05;17.70;99.90
8408;DHT22;4241;48.452;9.216;2022-07-29T05:32:33;17.80;99.90
8408;DHT22;4241;48.452;9.216;2022-07-29T05:34:59;17.80;99.90
8408;DHT22;4241;48.452;9.216;2022-07-29T05:37:27;17.80;99.90
8408;DHT22;4241;48.452;9.216;2022-07-29T05:39:54;17.80;99.90
8408;DHT22;4241;48.452;9.216;2022-07-29T05:42:21;17.90;99.90
8408;DHT22;4241;48.452;9.216;2022-07-29T05:44:48;18.20;99.90
8408;DHT22;4241;48.452;9.216;2022-07-29T05:47:15;18.40;99.90
8408;DHT22;4241;48.452;9.216;2022-07-29T05:49:42;18.50;99.90
8408;DHT22;4241;48.452;9.216;2022-07-29T05:52:09;18.60;99.90
8408;DHT22;4241;48.452;9.216;2022-07-29T05:54:37;18.60;99.90
8408;DHT22;4241;48.452;9.216;2022-07-29T05:57:04;18.80;99.90
8408;DHT22;4241;48.452;9.216;2022-07-29T05:59:31;18.90;99.90
8408;DHT22;4241;48.452;9.216;2022-07-29T06:01:58;18.90;99.90
8408;DHT22;4241;48.452;9.216;2022-07-29T06:04:25;18.90;99.90
8408;DHT22;4241;48.452;9.216;2022-07-29T06:06:52;18.90;99.90
8408;DHT22;4241;48.452;9.216;2022-07-29T06:09:18;19.00;99.90
8408;DHT22;4241;48.452;9.216;2022-07-29T06:11:47;19.00;99.90
8408;DHT22;4241;48.452;9.216;2022-07-29T06:14:14;19.10;99.90
8408;DHT22;4241;48.452;9.216;2022-07-29T06:16:41;19.20;99.90
8408;DHT22;4241;48.452;9.216;2022-07-29T06:19:08;19.20;99.90
8408;DHT22;4241;48.452;9.216;2022-07-29T06:21:34;19.20;99.90
8408;DHT22;4241;48.452;9.216;2022-07-29T06:24:01;19.10;99.90
8408;DHT22;4241;48.452;9.216;2022-07-29T06:26:28;19.10;99.90
8408;DHT22;4241;48.452;9.216;2022-07-29T06:28:56;19.10;99.90
8408;DHT22;4241;48.452;9.216;2022-07-29T06:31:24;19.20;99.90
8408;DHT22;4241;48.452;9.216;2022-07-29T06:33:50;19.30;99.90
8408;DHT22;4241;48.452;9.216;2022-07-29T06:36:18;19.50;99.90
8408;DHT22;4241;48.452;9.216;2022-07-29T06:38:45;19.50;99.90
8408;DHT22;4241;48.452;9.216;2022-07-29T06:41:12;19.50;99.90
8408;DHT22;4241;48.452;9.216;2022-07-29T06:43:43;19.50;99.90
8408;DHT22;4241;48.452;9.216;2022-07-29T06:46:15;19.70;99.90
8408;DHT22;4241;48.452;9.216;2022-07-29T06:48:43;20.10;99.90
8408;DHT22;4241;48.452;9.216;2022-07-29T06:51:10;20.40;99.90
8408;DHT22;4241;48.452;9.216;2022-07-29T06:53:38;20.60;99.90
8408;DHT22;4241;48.452;9.216;2022-07-29T06:56:07;20.80;99.90
8408;DHT22;4241;48.452;9.216;2022-07-29T06:58:35;20.80;99.90
8408;DHT22;4241;48.452;9.216;2022-07-29T07:01:04;21.10;99.90
8408;DHT22;4241;48.452;9.216;2022-07-29T07:03:33;21.30;99.90
8408;DHT22;4241;48.452;9.216;2022-07-29T07:06:00;21.40;99.90
8408;DHT22;4241;48.452;9.216;2022-07-29T07:08:26;21.70;99.90
8408;DHT22;4241;48.452;9.216;2022-07-29T07:10:53;21.60;99.90
8408;DHT22;4241;48.452;9.216;2022-07-29T07:13:21;21.60;99.90
8408;DHT22;4241;48.452;9.216;2022-07-29T07:15:48;21.60;99.90
8408;DHT22;4241;48.452;9.216;2022-07-29T07:18:16;22.10;99.90
8408;DHT22;4241;48.452;9.216;2022-07-29T07:20:45;22.20;99.90
8408;DHT22;4241;48.452;9.216;2022-07-29T07:23:13;22.30;99.90
8408;DHT22;4241;48.452;9.216;2022-07-29T07:25:39;22.20;99.90
8408;DHT22;4241;48.452;9.216;2022-07-29T07:28:07;22.30;99.90
8408;DHT22;4241;48.452;9.216;2022-07-29T07:30:34;22.40;99.90
8408;DHT22;4241;48.452;9.216;2022-07-29T07:33:01;22.40;99.90
8408;DHT22;4241;48.452;9.216;2022-07-29T07:35:28;22.50;99.90
8408;DHT22;4241;48.452;9.216;2022-07-29T07:37:57;22.40;99.90
8408;DHT22;4241;48.452;9.216;2022-07-29T07:40:24;22.70;99.90
8408;DHT22;4241;48.452;9.216;2022-07-29T07:42:51;23.00;99.90
8408;DHT22;4241;48.452;9.216;2022-07-29T07:45:18;23.00;99.90
8408;DHT22;4241;48.452;9.216;2022-07-29T07:47:45;23.20;99.90
8408;DHT22;4241;48.452;9.216;2022-07-29T07:50:12;23.30;99.90
8408;DHT22;4241;48.452;9.216;2022-07-29T07:52:50;23.50;99.90
8408;DHT22;4241;48.452;9.216;2022-07-29T07:55:19;23.80;99.90
8408;DHT22;4241;48.452;9.216;2022-07-29T07:57:46;23.90;99.90
8408;DHT22;4241;48.452;9.216;2022-07-29T08:00:14;24.20;99.90
8408;DHT22;4241;48.452;9.216;2022-07-29T08:02:42;24.30;99.90
8408;DHT22;4241;48.452;9.216;2022-07-29T08:05:11;24.50;99.90
8408;DHT22;4241;48.452;9.216;2022-07-29T08:07:42;24.60;99.90
8408;DHT22;4241;48.452;9.216;2022-07-29T08:10:10;24.90;99.90
8408;DHT22;4241;48.452;9.216;2022-07-29T08:12:38;24.90;99.90
8408;DHT22;4241;48.452;9.216;2022-07-29T08:15:06;25.00;99.90
8408;DHT22;4241;48.452;9.216;2022-07-29T08:17:33;24.70;99.90
8408;DHT22;4241;48.452;9.216;2022-07-29T08:20:01;24.50;99.90
8408;DHT22;4241;48.452;9.216;2022-07-29T08:22:27;24.70;99.90
8408;DHT22;4241;48.452;9.216;2022-07-29T08:24:54;25.10;99.90
8408;DHT22;4241;48.452;9.216;2022-07-29T08:27:21;25.10;99.90
8408;DHT22;4241;48.452;9.216;2022-07-29T08:29:50;25.00;99.90
8408;DHT22;4241;48.452;9.216;2022-07-29T08:32:16;25.00;99.90
8408;DHT22;4241;48.452;9.216;2022-07-29T08:34:43;25.30;99.90
8408;DHT22;4241;48.452;9.216;2022-07-29T08:37:12;25.50;99.90
8408;DHT22;4241;48.452;9.216;2022-07-29T08:39:39;25.60;99.90
8408;DHT22;4241;48.452;9.216;2022-07-29T08:42:06;25.30;99.90
8408;DHT22;4241;48.452;9.216;2022-07-29T08:44:33;25.20;99.90
8408;DHT22;4241;48.452;9.216;2022-07-29T08:47:02;25.60;99.90
8408;DHT22;4241;48.452;9.216;2022-07-29T08:49:30;25.70;99.90
8408;DHT22;4241;48.452;9.216;2022-07-29T08:51:58;25.90;99.90
8408;DHT22;4241;48.452;9.216;2022-07-29T08:54:27;25.60;99.90
8408;DHT22;4241;48.452;9.216;2022-07-29T08:56:54;25.50;99.90
8408;DHT22;4241;48.452;9.216;2022-07-29T08:59:22;25.40;99.90
8408;DHT22;4241;48.452;9.216;2022-07-29T09:01:53;25.80;99.90
8408;DHT22;4241;48.452;9.216;2022-07-29T09:04:25;25.80;99.90
8408;DHT22;4241;48.452;9.216;2022-07-29T09:06:54;25.50;99.90
8408;DHT22;4241;48.452;9.216;2022-07-29T09:09:23;24.90;99.90
8408;DHT22;4241;48.452;9.216;2022-07-29T09:11:50;24.90;99.90
8408;DHT22;4241;48.452;9.216;2022-07-29T09:14:19;25.40;99.90
8408;DHT22;4241;48.452;9.216;2022-07-29T09:16:52;26.20;99.90
8408;DHT22;4241;48.452;9.216;2022-07-29T09:19:25;26.20;99.90
8408;DHT22;4241;48.452;9.216;2022-07-29T09:21:53;26.20;99.90
8408;DHT22;4241;48.452;9.216;2022-07-29T09:24:37;26.60;99.90
8408;DHT22;4241;48.452;9.216;2022-07-29T09:27:10;26.70;99.90
8408;DHT22;4241;48.452;9.216;2022-07-29T09:29:38;26.60;99.90
8408;DHT22;4241;48.452;9.216;2022-07-29T09:32:08;26.20;99.90
8408;DHT22;4241;48.452;9.216;2022-07-29T09:34:37;26.30;99.90
8408;DHT22;4241;48.452;9.216;2022-07-29T09:37:04;26.40;99.90
8408;DHT22;4241;48.452;9.216;2022-07-29T09:39:33;26.30;99.90
8408;DHT22;4241;48.452;9.216;2022-07-29T09:42:01;26.30;99.90
8408;DHT22;4241;48.452;9.216;2022-07-29T09:44:41;26.40;99.90
8408;DHT22;4241;48.452;9.216;2022-07-29T09:47:09;26.30;99.90
8408;DHT22;4241;48.452;9.216;2022-07-29T09:49:51;26.70;99.90
8408;DHT22;4241;48.452;9.216;2022-07-29T09:52:18;26.70;99.90
8408;DHT22;4241;48.452;9.216;2022-07-29T09:54:45;27.20;99.90
8408;DHT22;4241;48.452;9.216;2022-07-29T09:57:23;27.30;99.90
8408;DHT22;4241;48.452;9.216;2022-07-29T09:59:56;27.10;99.90
8408;DHT22;4241;48.452;9.216;2022-07-29T10:02:28;27.50;99.90
8408;DHT22;4241;48.452;9.216;2022-07-29T10:04:59;27.20;99.90
8408;DHT22;4241;48.452;9.216;2022-07-29T10:07:26;26.80;99.90
8408;DHT22;4241;48.452;9.216;2022-07-29T10:09:55;26.60;99.90
8408;DHT22;4241;48.452;9.216;2022-07-29T10:12:22;27.00;99.90
8408;DHT22;4241;48.452;9.216;2022-07-29T10:14:50;27.00;99.90
8408;DHT22;4241;48.452;9.216;2022-07-29T10:17:18;26.90;99.90
8408;DHT22;4241;48.452;9.216;2022-07-29T10:19:46;26.70;99.90
8408;DHT22;4241;48.452;9.216;2022-07-29T10:22:15;26.60;99.90
8408;DHT22;4241;48.452;9.216;2022-07-29T10:24:43;26.60;99.90
8408;DHT22;4241;48.452;9.216;2022-07-29T10:27:10;26.60;99.90
8408;DHT22;4241;48.452;9.216;2022-07-29T10:29:37;26.80;99.90
8408;DHT22;4241;48.452;9.216;2022-07-29T10:32:22;26.80;99.90
8408;DHT22;4241;48.452;9.216;2022-07-29T10:35:12;27.00;99.90
8408;DHT22;4241;48.452;9.216;2022-07-29T10:41:07;26.90;99.90
8408;DHT22;4241;48.452;9.216;2022-07-29T10:43:56;26.70;99.90
8408;DHT22;4241;48.452;9.216;2022-07-29T10:46:25;26.90;99.90
8408;DHT22;4241;48.452;9.216;2022-07-29T10:49:08;27.00;99.90
8408;DHT22;4241;48.452;9.216;2022-07-29T10:52:00;26.80;99.90
8408;DHT22;4241;48.452;9.216;2022-07-29T10:54:43;26.60;99.90
8408;DHT22;4241;48.452;9.216;2022-07-29T10:57:12;26.90;99.90
8408;DHT22;4241;48.452;9.216;2022-07-29T10:59:39;27.10;99.90
8408;DHT22;4241;48.452;9.216;2022-07-29T11:05:06;27.80;99.90
8408;DHT22;4241;48.452;9.216;2022-07-29T11:07:35;27.70;99.70
8408;DHT22;4241;48.452;9.216;2022-07-29T11:10:23;27.90;99.90
8408;DHT22;4241;48.452;9.216;2022-07-29T11:12:50;28.00;99.90
8408;DHT22;4241;48.452;9.216;2022-07-29T11:15:19;27.90;99.30
8408;DHT22;4241;48.452;9.216;2022-07-29T11:18:06;28.00;99.90
8408;DHT22;4241;48.452;9.216;2022-07-29T11:20:39;28.10;99.90
8408;DHT22;4241;48.452;9.216;2022-07-29T11:23:24;27.40;98.30
8408;DHT22;4241;48.452;9.216;2022-07-29T11:26:15;27.60;99.90
8408;DHT22;4241;48.452;9.216;2022-07-29T11:28:58;27.40;99.90
8408;DHT22;4241;48.452;9.216;2022-07-29T11:31:35;27.50;99.90
8408;DHT22;4241;48.452;9.216;2022-07-29T11:34:19;27.80;99.90
8408;DHT22;4241;48.452;9.216;2022-07-29T11:37:18;28.40;99.90
8408;DHT22;4241;48.452;9.216;2022-07-29T11:39:46;28.90;99.30
8408;DHT22;4241;48.452;9.216;2022-07-29T11:42:40;29.20;97.50
8408;DHT22;4241;48.452;9.216;2022-07-29T11:45:08;29.40;96.40
8408;DHT22;4241;48.452;9.216;2022-07-29T11:47:37;28.60;97.30
8408;DHT22;4241;48.452;9.216;2022-07-29T11:50:06;28.40;96.00
8408;DHT22;4241;48.452;9.216;2022-07-29T11:52:34;29.20;98.20
8408;DHT22;4241;48.452;9.216;2022-07-29T11:55:09;28.80;98.10
8408;DHT22;4241;48.452;9.216;2022-07-29T11:57:36;27.90;99.90
8408;DHT22;4241;48.452;9.216;2022-07-29T12:00:06;26.80;99.90
8408;DHT22;4241;48.452;9.216;2022-07-29T12:02:41;26.50;99.90
8408;DHT22;4241;48.452;9.216;2022-07-29T12:05:09;27.00;99.90
8408;DHT22;4241;48.452;9.216;2022-07-29T12:09:49;26.00;99.90
8408;DHT22;4241;48.452;9.216;2022-07-29T12:12:17;26.80;99.90
8408;DHT22;4241;48.452;9.216;2022-07-29T12:14:44;26.60;99.90
8408;DHT22;4241;48.452;9.216;2022-07-29T12:17:25;26.10;99.90
8408;DHT22;4241;48.452;9.216;2022-07-29T12:19:52;25.20;99.90
8408;DHT22;4241;48.452;9.216;2022-07-29T12:22:25;25.40;99.90
8408;DHT22;4241;48.452;9.216;2022-07-29T12:24:54;26.10;99.90
8408;DHT22;4241;48.452;9.216;2022-07-29T12:27:22;25.60;99.90
8408;DHT22;4241;48.452;9.216;2022-07-29T12:29:56;25.60;99.90
8408;DHT22;4241;48.452;9.216;2022-07-29T12:32:30;25.10;99.90
8408;DHT22;4241;48.452;9.216;2022-07-29T12:34:57;24.90;99.90
8408;DHT22;4241;48.452;9.216;2022-07-29T12:37:25;24.50;99.90
8408;DHT22;4241;48.452;9.216;2022-07-29T12:39:53;24.40;99.90
8408;DHT22;4241;48.452;9.216;2022-07-29T12:42:20;24.20;99.90
8408;DHT22;4241;48.452;9.216;2022-07-29T12:44:48;24.20;99.90
8408;DHT22;4241;48.452;9.216;2022-07-29T12:47:16;23.70;99.90
8408;DHT22;4241;48.452;9.216;2022-07-29T12:49:43;23.50;99.90
8408;DHT22;4241;48.452;9.216;2022-07-29T12:52:30;22.80;99.90
8408;DHT22;4241;48.452;9.216;2022-07-29T12:54:58;23.00;99.90
8408;DHT22;4241;48.452;9.216;2022-07-29T12:57:26;22.90;99.90
8408;DHT22;4241;48.452;9.216;2022-07-29T13:00:04;22.70;99.90
8408;DHT22;4241;48.452;9.216;2022-07-29T13:02:32;23.20;99.90
8408;DHT22;4241;48.452;9.216;2022-07-29T13:05:00;23.90;99.90
8408;DHT22;4241;48.452;9.216;2022-07-29T13:07:29;24.30;99.90
8408;DHT22;4241;48.452;9.216;2022-07-29T13:10:12;24.30;99.90
8408;DHT22;4241;48.452;9.216;2022-07-29T13:12:39;24.40;99.90
8408;DHT22;4241;48.452;9.216;2022-07-29T13:15:26;24.40;99.90
8408;DHT22;4241;48.452;9.216;2022-07-29T13:17:53;24.40;99.90
8408;DHT22;4241;48.452;9.216;2022-07-29T13:20:24;24.60;99.90
8408;DHT22;4241;48.452;9.216;2022-07-29T13:22:53;24.80;99.90
8408;DHT22;4241;48.452;9.216;2022-07-29T13:25:26;24.90;99.90
8408;DHT22;4241;48.452;9.216;2022-07-29T13:27:54;24.80;99.90
8408;DHT22;4241;48.452;9.216;2022-07-29T13:30:22;24.90;99.90
8408;DHT22;4241;48.452;9.216;2022-07-29T13:32:50;24.90;99.90
8408;DHT22;4241;48.452;9.216;2022-07-29T13:35:18;24.90;99.90
8408;DHT22;4241;48.452;9.216;2022-07-29T13:37:47;25.10;99.90
8408;DHT22;4241;48.452;9.216;2022-07-29T13:40:14;25.40;99.90
8408;DHT22;4241;48.452;9.216;2022-07-29T13:42:43;25.50;99.90
8408;DHT22;4241;48.452;9.216;2022-07-29T13:45:10;25.50;99.90
8408;DHT22;4241;48.452;9.216;2022-07-29T13:47:37;25.30;99.90
8408;DHT22;4241;48.452;9.216;2022-07-29T13:50:07;25.20;99.90
8408;DHT22;4241;48.452;9.216;2022-07-29T13:52:35;25.30;99.90
8408;DHT22;4241;48.452;9.216;2022-07-29T13:55:03;25.10;99.90
8408;DHT22;4241;48.452;9.216;2022-07-29T13:57:31;24.90;99.90
8408;DHT22;4241;48.452;9.216;2022-07-29T13:59:59;25.00;99.90
8408;DHT22;4241;48.452;9.216;2022-07-29T14:02:26;24.80;99.90
8408;DHT22;4241;48.452;9.216;2022-07-29T14:04:53;24.90;99.90
8408;DHT22;4241;48.452;9.216;2022-07-29T14:07:20;25.10;99.90
8408;DHT22;4241;48.452;9.216;2022-07-29T14:09:47;24.90;99.90
8408;DHT22;4241;48.452;9.216;2022-07-29T14:12:14;24.70;99.90
8408;DHT22;4241;48.452;9.216;2022-07-29T14:14:41;24.70;99.90
8408;DHT22;4241;48.452;9.216;2022-07-29T14:17:09;24.80;99.90
8408;DHT22;4241;48.452;9.216;2022-07-29T14:19:36;24.40;99.90
8408;DHT22;4241;48.452;9.216;2022-07-29T14:22:04;24.00;99.90
8408;DHT22;4241;48.452;9.216;2022-07-29T14:24:32;24.10;99.90
8408;DHT22;4241;48.452;9.216;2022-07-29T14:26:59;24.20;99.90
8408;DHT22;4241;48.452;9.216;2022-07-29T14:29:26;23.90;99.90
8408;DHT22;4241;48.452;9.216;2022-07-29T14:31:53;23.70;99.90
8408;DHT22;4241;48.452;9.216;2022-07-29T14:34:21;24.10;99.90
8408;DHT22;4241;48.452;9.216;2022-07-29T14:36:48;24.10;99.90
8408;DHT22;4241;48.452;9.216;2022-07-29T14:39:15;24.20;99.90
8408;DHT22;4241;48.452;9.216;2022-07-29T14:41:42;24.50;99.90
8408;DHT22;4241;48.452;9.216;2022-07-29T14:44:09;24.40;99.90
8408;DHT22;4241;48.452;9.216;2022-07-29T14:46:36;24.30;99.90
8408;DHT22;4241;48.452;9.216;2022-07-29T14:49:03;24.10;99.90
8408;DHT22;4241;48.452;9.216;2022-07-29T14:51:32;24.40;99.90
8408;DHT22;4241;48.452;9.216;2022-07-29T14:53:59;24.30;99.90
8408;DHT22;4241;48.452;9.216;2022-07-29T14:56:26;24.20;99.90
8408;DHT22;4241;48.452;9.216;2022-07-29T14:58:55;24.20;99.90
8408;DHT22;4241;48.452;9.216;2022-07-29T15:01:22;24.40;99.90
8408;DHT22;4241;48.452;9.216;2022-07-29T15:03:49;24.40;99.90
8408;DHT22;4241;48.452;9.216;2022-07-29T15:06:16;24.40;99.90
8408;DHT22;4241;48.452;9.216;2022-07-29T15:08:44;24.50;99.90
8408;DHT22;4241;48.452;9.216;2022-07-29T15:11:11;24.20;99.90
8408;DHT22;4241;48.452;9.216;2022-07-29T15:13:38;24.40;99.90
8408;DHT22;4241;48.452;9.216;2022-07-29T15:16:05;24.30;99.90
8408;DHT22;4241;48.452;9.216;2022-07-29T15:18:32;24.30;99.90
8408;DHT22;4241;48.452;9.216;2022-07-29T15:20:59;24.30;99.90
8408;DHT22;4241;48.452;9.216;2022-07-29T15:23:27;24.10;99.90
8408;DHT22;4241;48.452;9.216;2022-07-29T15:25:55;24.10;99.90
8408;DHT22;4241;48.452;9.216;2022-07-29T15:28:22;24.10;99.90
8408;DHT22;4241;48.452;9.216;2022-07-29T15:30:49;24.20;99.90
8408;DHT22;4241;48.452;9.216;2022-07-29T15:33:16;24.10;99.90
8408;DHT22;4241;48.452;9.216;2022-07-29T15:35:43;24.10;99.90
8408;DHT22;4241;48.452;9.216;2022-07-29T15:38:10;23.90;99.90
8408;DHT22;4241;48.452;9.216;2022-07-29T15:40:37;24.00;99.90
8408;DHT22;4241;48.452;9.216;2022-07-29T15:43:05;23.90;99.90
8408;DHT22;4241;48.452;9.216;2022-07-29T15:45:35;23.90;99.90
8408;DHT22;4241;48.452;9.216;2022-07-29T15:48:04;24.20;99.90
8408;DHT22;4241;48.452;9.216;2022-07-29T15:50:31;24.30;99.90
8408;DHT22;4241;48.452;9.216;2022-07-29T15:52:59;24.30;99.90
8408;DHT22;4241;48.452;9.216;2022-07-29T15:55:26;24.30;99.90
8408;DHT22;4241;48.452;9.216;2022-07-29T15:57:52;24.30;99.90
8408;DHT22;4241;48.452;9.216;2022-07-29T16:00:21;24.30;99.90
8408;DHT22;4241;48.452;9.216;2022-07-29T16:02:49;24.40;99.90
8408;DHT22;4241;48.452;9.216;2022-07-29T16:05:16;24.60;99.90
8408;DHT22;4241;48.452;9.216;2022-07-29T16:07:43;24.80;99.90
8408;DHT22;4241;48.452;9.216;2022-07-29T16:10:10;24.80;99.90
8408;DHT22;4241;48.452;9.216;2022-07-29T16:12:37;24.90;99.90
8408;DHT22;4241;48.452;9.216;2022-07-29T16:15:04;24.90;99.90
8408;DHT22;4241;48.452;9.216;2022-07-29T16:17:33;24.80;99.90
8408;DHT22;4241;48.452;9.216;2022-07-29T16:20:00;24.80;99.90
8408;DHT22;4241;48.452;9.216;2022-07-29T16:22:26;24.80;99.90
8408;DHT22;4241;48.452;9.216;2022-07-29T16:24:53;24.70;99.90